sensor_id;sensor_type;location;lat;lon;timestamp;P1;durP1;ratioP1;P2;durP2;ratioP2
72941;SDS011;69665;55.822;37.330;2024-03-25T00:02:00;1.20;;;0.40;;
72941;SDS011;69665;55.822;37.330;2024-03-25T00:04:26;0.70;;;0.30;;
72941;SDS011;69665;55.822;37.330;2024-03-25T00:06:51;0.65;;;0.30;;
72941;SDS011;69665;55.822;37.330;2024-03-25T00:09:18;0.88;;;0.30;;
72941;SDS011;69665;55.822;37.330;2024-03-25T00:11:44;1.58;;;0.20;;
72941;SDS011;69665;55.822;37.330;2024-03-25T00:14:09;0.85;;;0.40;;
72941;SDS011;69665;55.822;37.330;2024-03-25T00:16:35;0.35;;;0.28;;
72941;SDS011;69665;55.822;37.330;2024-03-25T00:19:01;0.40;;;0.10;;
72941;SDS011;69665;55.822;37.330;2024-03-25T00:21:27;0.82;;;0.30;;
72941;SDS011;69665;55.822;37.330;2024-03-25T00:23:52;0.20;;;0.10;;
72941;SDS011;69665;55.822;37.330;2024-03-25T00:26:21;0.38;;;0.15;;
72941;SDS011;69665;55.822;37.330;2024-03-25T00:28:48;0.30;;;0.10;;
72941;SDS011;69665;55.822;37.330;2024-03-25T00:31:14;0.00;;;0.00;;
72941;SDS011;69665;55.822;37.330;2024-03-25T00:33:40;0.75;;;0.17;;
72941;SDS011;69665;55.822;37.330;2024-03-25T00:36:05;0.10;;;0.08;;
72941;SDS011;69665;55.822;37.330;2024-03-25T00:38:33;0.40;;;0.20;;
72941;SDS011;69665;55.822;37.330;2024-03-25T00:40:58;1.95;;;0.30;;
72941;SDS011;69665;55.822;37.330;2024-03-25T00:43:24;0.85;;;0.25;;
72941;SDS011;69665;55.822;37.330;2024-03-25T00:45:50;0.15;;;0.10;;
72941;SDS011;69665;55.822;37.330;2024-03-25T00:48:15;1.55;;;0.20;;
72941;SDS011;69665;55.822;37.330;2024-03-25T00:50:41;0.10;;;0.10;;
72941;SDS011;69665;55.822;37.330;2024-03-25T00:53:07;0.50;;;0.30;;
72941;SDS011;69665;55.822;37.330;2024-03-25T00:55:33;0.65;;;0.28;;
72941;SDS011;69665;55.822;37.330;2024-03-25T00:58:01;0.52;;;0.10;;
72941;SDS011;69665;55.822;37.330;2024-03-25T01:00:27;0.30;;;0.10;;
72941;SDS011;69665;55.822;37.330;2024-03-25T01:02:53;0.20;;;0.20;;
72941;SDS011;69665;55.822;37.330;2024-03-25T01:05:19;0.63;;;0.20;;
72941;SDS011;69665;55.822;37.330;2024-03-25T01:07:44;1.27;;;0.22;;
72941;SDS011;69665;55.822;37.330;2024-03-25T01:10:10;0.60;;;0.20;;
72941;SDS011;69665;55.822;37.330;2024-03-25T01:12:35;0.30;;;0.20;;
72941;SDS011;69665;55.822;37.330;2024-03-25T01:15:01;0.30;;;0.17;;
72941;SDS011;69665;55.822;37.330;2024-03-25T01:17:29;0.65;;;0.15;;
72941;SDS011;69665;55.822;37.330;2024-03-25T01:19:55;0.50;;;0.20;;
72941;SDS011;69665;55.822;37.330;2024-03-25T01:22:21;0.70;;;0.20;;
72941;SDS011;69665;55.822;37.330;2024-03-25T01:24:46;0.10;;;0.10;;
72941;SDS011;69665;55.822;37.330;2024-03-25T01:27:12;0.10;;;0.10;;
72941;SDS011;69665;55.822;37.330;2024-03-25T01:29:38;0.20;;;0.10;;
72941;SDS011;69665;55.822;37.330;2024-03-25T01:32:03;0.17;;;0.15;;
72941;SDS011;69665;55.822;37.330;2024-03-25T01:34:30;0.22;;;0.10;;
72941;SDS011;69665;55.822;37.330;2024-03-25T01:36:56;1.00;;;0.20;;
72941;SDS011;69665;55.822;37.330;2024-03-25T01:39:23;0.65;;;0.10;;
72941;SDS011;69665;55.822;37.330;2024-03-25T01:41:49;0.20;;;0.20;;
72941;SDS011;69665;55.822;37.330;2024-03-25T01:44:16;0.25;;;0.08;;
72941;SDS011;69665;55.822;37.330;2024-03-25T01:46:41;0.20;;;0.20;;
72941;SDS011;69665;55.822;37.330;2024-03-25T01:49:08;0.55;;;0.20;;
72941;SDS011;69665;55.822;37.330;2024-03-25T01:51:34;0.63;;;0.20;;
72941;SDS011;69665;55.822;37.330;2024-03-25T01:54:01;1.85;;;0.25;;
72941;SDS011;69665;55.822;37.330;2024-03-25T01:56:29;0.52;;;0.20;;
72941;SDS011;69665;55.822;37.330;2024-03-25T01:59:01;0.13;;;0.10;;
72941;SDS011;69665;55.822;37.330;2024-03-25T02:01:27;0.60;;;0.20;;
72941;SDS011;69665;55.822;37.330;2024-03-25T02:03:54;0.30;;;0.10;;
72941;SDS011;69665;55.822;37.330;2024-03-25T02:06:21;0.00;;;0.00;;
72941;SDS011;69665;55.822;37.330;2024-03-25T02:08:48;0.22;;;0.20;;
72941;SDS011;69665;55.822;37.330;2024-03-25T02:11:14;0.40;;;0.10;;
72941;SDS011;69665;55.822;37.330;2024-03-25T02:13:41;1.08;;;0.32;;
72941;SDS011;69665;55.822;37.330;2024-03-25T02:16:07;0.43;;;0.30;;
72941;SDS011;69665;55.822;37.330;2024-03-25T02:18:53;1.95;;;0.65;;
72941;SDS011;69665;55.822;37.330;2024-03-25T02:21:19;1.98;;;0.60;;
72941;SDS011;69665;55.822;37.330;2024-03-25T02:23:45;2.25;;;0.52;;
72941;SDS011;69665;55.822;37.330;2024-03-25T02:26:13;2.83;;;0.77;;
72941;SDS011;69665;55.822;37.330;2024-03-25T02:28:39;2.13;;;0.60;;
72941;SDS011;69665;55.822;37.330;2024-03-25T02:31:04;2.58;;;0.80;;
72941;SDS011;69665;55.822;37.330;2024-03-25T02:33:30;1.50;;;0.40;;
72941;SDS011;69665;55.822;37.330;2024-03-25T02:35:55;1.60;;;0.57;;
72941;SDS011;69665;55.822;37.330;2024-03-25T02:38:21;0.98;;;0.40;;
72941;SDS011;69665;55.822;37.330;2024-03-25T02:40:47;1.27;;;0.50;;
72941;SDS011;69665;55.822;37.330;2024-03-25T02:43:14;1.45;;;0.40;;
72941;SDS011;69665;55.822;37.330;2024-03-25T02:45:40;0.90;;;0.30;;
72941;SDS011;69665;55.822;37.330;2024-03-25T02:48:06;0.80;;;0.30;;
72941;SDS011;69665;55.822;37.330;2024-03-25T02:50:31;0.40;;;0.22;;
72941;SDS011;69665;55.822;37.330;2024-03-25T02:52:57;1.08;;;0.30;;
72941;SDS011;69665;55.822;37.330;2024-03-25T02:55:23;0.82;;;0.20;;
72941;SDS011;69665;55.822;37.330;2024-03-25T02:57:48;1.20;;;0.30;;
72941;SDS011;69665;55.822;37.330;2024-03-25T03:00:14;1.92;;;0.47;;
72941;SDS011;69665;55.822;37.330;2024-03-25T03:02:40;0.75;;;0.30;;
72941;SDS011;69665;55.822;37.330;2024-03-25T03:05:05;1.08;;;0.30;;
72941;SDS011;69665;55.822;37.330;2024-03-25T03:07:31;1.80;;;0.40;;
72941;SDS011;69665;55.822;37.330;2024-03-25T03:09:57;5.70;;;0.70;;
72941;SDS011;69665;55.822;37.330;2024-03-25T03:12:23;2.25;;;0.50;;
72941;SDS011;69665;55.822;37.330;2024-03-25T03:14:48;0.88;;;0.30;;
72941;SDS011;69665;55.822;37.330;2024-03-25T03:17:14;2.50;;;0.70;;
72941;SDS011;69665;55.822;37.330;2024-03-25T03:19:41;1.15;;;0.32;;
72941;SDS011;69665;55.822;37.330;2024-03-25T03:22:07;2.35;;;0.60;;
72941;SDS011;69665;55.822;37.330;2024-03-25T03:24:32;2.25;;;0.50;;
72941;SDS011;69665;55.822;37.330;2024-03-25T03:26:58;0.98;;;0.30;;
72941;SDS011;69665;55.822;37.330;2024-03-25T03:29:24;1.08;;;0.38;;
72941;SDS011;69665;55.822;37.330;2024-03-25T03:31:49;0.68;;;0.40;;
72941;SDS011;69665;55.822;37.330;2024-03-25T03:34:15;2.63;;;0.80;;
72941;SDS011;69665;55.822;37.330;2024-03-25T03:36:41;2.55;;;0.88;;
72941;SDS011;69665;55.822;37.330;2024-03-25T03:39:07;1.58;;;0.50;;
72941;SDS011;69665;55.822;37.330;2024-03-25T03:41:35;0.90;;;0.50;;
72941;SDS011;69665;55.822;37.330;2024-03-25T03:44:01;2.28;;;0.60;;
72941;SDS011;69665;55.822;37.330;2024-03-25T03:46:27;1.10;;;0.47;;
72941;SDS011;69665;55.822;37.330;2024-03-25T03:48:53;1.30;;;0.52;;
72941;SDS011;69665;55.822;37.330;2024-03-25T03:51:18;1.40;;;0.75;;
72941;SDS011;69665;55.822;37.330;2024-03-25T03:53:44;1.77;;;0.50;;
72941;SDS011;69665;55.822;37.330;2024-03-25T03:56:10;1.55;;;0.40;;
72941;SDS011;69665;55.822;37.330;2024-03-25T03:58:35;0.65;;;0.30;;
72941;SDS011;69665;55.822;37.330;2024-03-25T04:01:01;0.73;;;0.40;;
72941;SDS011;69665;55.822;37.330;2024-03-25T04:03:27;1.05;;;0.40;;
72941;SDS011;69665;55.822;37.330;2024-03-25T04:05:53;1.23;;;0.40;;
72941;SDS011;69665;55.822;37.330;2024-03-25T04:08:18;0.95;;;0.30;;
72941;SDS011;69665;55.822;37.330;2024-03-25T04:10:45;1.52;;;0.43;;
72941;SDS011;69665;55.822;37.330;2024-03-25T04:13:11;0.30;;;0.30;;
72941;SDS011;69665;55.822;37.330;2024-03-25T04:15:39;0.35;;;0.30;;
72941;SDS011;69665;55.822;37.330;2024-03-25T04:18:06;0.57;;;0.20;;
72941;SDS011;69665;55.822;37.330;2024-03-25T04:20:39;1.10;;;0.60;;
72941;SDS011;69665;55.822;37.330;2024-03-25T04:23:06;1.45;;;0.40;;
72941;SDS011;69665;55.822;37.330;2024-03-25T04:25:35;1.17;;;0.43;;
72941;SDS011;69665;55.822;37.330;2024-03-25T04:28:04;1.70;;;0.50;;
72941;SDS011;69665;55.822;37.330;2024-03-25T04:30:31;0.88;;;0.47;;
72941;SDS011;69665;55.822;37.330;2024-03-25T04:32:58;1.85;;;0.40;;
72941;SDS011;69665;55.822;37.330;2024-03-25T04:35:24;1.40;;;0.63;;
72941;SDS011;69665;55.822;37.330;2024-03-25T04:37:50;1.13;;;0.47;;
72941;SDS011;69665;55.822;37.330;2024-03-25T04:40:16;2.13;;;0.50;;
72941;SDS011;69665;55.822;37.330;2024-03-25T04:42:44;1.63;;;0.50;;
72941;SDS011;69665;55.822;37.330;2024-03-25T04:45:10;1.17;;;0.70;;
72941;SDS011;69665;55.822;37.330;2024-03-25T04:47:37;2.63;;;0.70;;
72941;SDS011;69665;55.822;37.330;2024-03-25T04:50:03;1.38;;;0.60;;
72941;SDS011;69665;55.822;37.330;2024-03-25T04:52:30;1.45;;;0.70;;
72941;SDS011;69665;55.822;37.330;2024-03-25T04:54:56;2.25;;;0.70;;
72941;SDS011;69665;55.822;37.330;2024-03-25T04:57:21;1.38;;;0.90;;
72941;SDS011;69665;55.822;37.330;2024-03-25T04:59:48;1.42;;;0.50;;
72941;SDS011;69665;55.822;37.330;2024-03-25T05:02:13;1.77;;;0.50;;
72941;SDS011;69665;55.822;37.330;2024-03-25T05:04:39;1.60;;;0.60;;
72941;SDS011;69665;55.822;37.330;2024-03-25T05:07:05;3.33;;;0.80;;
72941;SDS011;69665;55.822;37.330;2024-03-25T05:09:31;1.23;;;0.60;;
72941;SDS011;69665;55.822;37.330;2024-03-25T05:11:56;1.15;;;0.60;;
72941;SDS011;69665;55.822;37.330;2024-03-25T05:14:23;2.13;;;0.80;;
72941;SDS011;69665;55.822;37.330;2024-03-25T05:16:48;2.85;;;1.25;;
72941;SDS011;69665;55.822;37.330;2024-03-25T05:19:15;2.58;;;0.90;;
72941;SDS011;69665;55.822;37.330;2024-03-25T05:21:41;1.75;;;0.50;;
72941;SDS011;69665;55.822;37.330;2024-03-25T05:24:06;2.50;;;0.47;;
72941;SDS011;69665;55.822;37.330;2024-03-25T05:26:32;1.63;;;0.55;;
72941;SDS011;69665;55.822;37.330;2024-03-25T05:28:58;1.02;;;0.63;;
72941;SDS011;69665;55.822;37.330;2024-03-25T05:31:23;2.45;;;0.60;;
72941;SDS011;69665;55.822;37.330;2024-03-25T05:33:50;1.05;;;0.50;;
72941;SDS011;69665;55.822;37.330;2024-03-25T05:36:16;1.10;;;0.30;;
72941;SDS011;69665;55.822;37.330;2024-03-25T05:38:42;1.67;;;0.55;;
72941;SDS011;69665;55.822;37.330;2024-03-25T05:41:09;1.95;;;0.52;;
72941;SDS011;69665;55.822;37.330;2024-03-25T05:43:35;2.20;;;0.52;;
72941;SDS011;69665;55.822;37.330;2024-03-25T05:46:01;1.20;;;0.57;;
72941;SDS011;69665;55.822;37.330;2024-03-25T05:48:28;3.15;;;0.70;;
72941;SDS011;69665;55.822;37.330;2024-03-25T05:51:04;1.92;;;0.68;;
72941;SDS011;69665;55.822;37.330;2024-03-25T05:53:33;1.83;;;0.63;;
72941;SDS011;69665;55.822;37.330;2024-03-25T05:56:02;2.58;;;0.60;;
72941;SDS011;69665;55.822;37.330;2024-03-25T05:58:27;2.97;;;0.85;;
72941;SDS011;69665;55.822;37.330;2024-03-25T06:00:53;2.50;;;0.90;;
72941;SDS011;69665;55.822;37.330;2024-03-25T06:03:19;2.40;;;0.70;;
72941;SDS011;69665;55.822;37.330;2024-03-25T06:05:45;2.22;;;0.60;;
72941;SDS011;69665;55.822;37.330;2024-03-25T06:08:11;1.38;;;0.60;;
72941;SDS011;69665;55.822;37.330;2024-03-25T06:10:50;2.60;;;0.50;;
72941;SDS011;69665;55.822;37.330;2024-03-25T06:13:16;2.08;;;0.60;;
72941;SDS011;69665;55.822;37.330;2024-03-25T06:15:42;2.67;;;0.60;;
72941;SDS011;69665;55.822;37.330;2024-03-25T06:18:08;1.17;;;0.50;;
72941;SDS011;69665;55.822;37.330;2024-03-25T06:20:34;3.88;;;1.30;;
72941;SDS011;69665;55.822;37.330;2024-03-25T06:23:00;1.35;;;0.45;;
72941;SDS011;69665;55.822;37.330;2024-03-25T06:25:26;2.53;;;0.80;;
72941;SDS011;69665;55.822;37.330;2024-03-25T06:27:53;1.17;;;0.57;;
72941;SDS011;69665;55.822;37.330;2024-03-25T06:30:20;0.65;;;0.40;;
72941;SDS011;69665;55.822;37.330;2024-03-25T06:33:04;1.10;;;0.50;;
72941;SDS011;69665;55.822;37.330;2024-03-25T06:35:49;2.78;;;0.65;;
72941;SDS011;69665;55.822;37.330;2024-03-25T06:38:14;1.55;;;0.43;;
72941;SDS011;69665;55.822;37.330;2024-03-25T06:40:40;1.83;;;0.60;;
72941;SDS011;69665;55.822;37.330;2024-03-25T06:43:06;1.80;;;0.70;;
72941;SDS011;69665;55.822;37.330;2024-03-25T06:45:31;2.33;;;0.85;;
72941;SDS011;69665;55.822;37.330;2024-03-25T06:47:57;1.30;;;0.63;;
72941;SDS011;69665;55.822;37.330;2024-03-25T06:50:23;2.33;;;0.70;;
72941;SDS011;69665;55.822;37.330;2024-03-25T06:52:49;5.47;;;0.80;;
72941;SDS011;69665;55.822;37.330;2024-03-25T06:55:15;1.90;;;0.82;;
72941;SDS011;69665;55.822;37.330;2024-03-25T06:57:41;2.35;;;0.90;;
72941;SDS011;69665;55.822;37.330;2024-03-25T07:00:07;3.20;;;0.80;;
72941;SDS011;69665;55.822;37.330;2024-03-25T07:02:39;2.28;;;0.82;;
72941;SDS011;69665;55.822;37.330;2024-03-25T07:05:05;2.13;;;0.80;;
72941;SDS011;69665;55.822;37.330;2024-03-25T07:07:32;3.53;;;0.88;;
72941;SDS011;69665;55.822;37.330;2024-03-25T07:09:59;5.25;;;0.80;;
72941;SDS011;69665;55.822;37.330;2024-03-25T07:12:25;4.85;;;1.02;;
72941;SDS011;69665;55.822;37.330;2024-03-25T07:14:52;5.40;;;1.48;;
72941;SDS011;69665;55.822;37.330;2024-03-25T07:17:18;3.58;;;0.98;;
72941;SDS011;69665;55.822;37.330;2024-03-25T07:19:44;2.15;;;0.70;;
72941;SDS011;69665;55.822;37.330;2024-03-25T07:22:10;2.70;;;0.80;;
72941;SDS011;69665;55.822;37.330;2024-03-25T07:24:36;4.57;;;1.10;;
72941;SDS011;69665;55.822;37.330;2024-03-25T07:27:02;2.78;;;0.80;;
72941;SDS011;69665;55.822;37.330;2024-03-25T07:29:28;2.58;;;0.85;;
72941;SDS011;69665;55.822;37.330;2024-03-25T07:31:54;4.32;;;0.63;;
72941;SDS011;69665;55.822;37.330;2024-03-25T07:34:19;3.33;;;0.85;;
72941;SDS011;69665;55.822;37.330;2024-03-25T07:36:45;3.28;;;0.70;;
72941;SDS011;69665;55.822;37.330;2024-03-25T07:39:12;3.38;;;0.88;;
72941;SDS011;69665;55.822;37.330;2024-03-25T07:41:38;4.53;;;0.95;;
72941;SDS011;69665;55.822;37.330;2024-03-25T07:44:04;4.13;;;1.42;;
72941;SDS011;69665;55.822;37.330;2024-03-25T07:46:30;2.22;;;0.80;;
72941;SDS011;69665;55.822;37.330;2024-03-25T07:48:56;4.65;;;1.08;;
72941;SDS011;69665;55.822;37.330;2024-03-25T07:51:21;3.05;;;0.70;;
72941;SDS011;69665;55.822;37.330;2024-03-25T07:53:47;3.45;;;0.90;;
72941;SDS011;69665;55.822;37.330;2024-03-25T07:56:16;3.55;;;1.20;;
72941;SDS011;69665;55.822;37.330;2024-03-25T07:58:43;3.10;;;1.08;;
72941;SDS011;69665;55.822;37.330;2024-03-25T08:01:09;5.20;;;1.23;;
72941;SDS011;69665;55.822;37.330;2024-03-25T08:03:34;4.50;;;1.13;;
72941;SDS011;69665;55.822;37.330;2024-03-25T08:06:00;4.15;;;1.00;;
72941;SDS011;69665;55.822;37.330;2024-03-25T08:08:26;3.60;;;1.13;;
72941;SDS011;69665;55.822;37.330;2024-03-25T08:10:53;2.88;;;0.82;;
72941;SDS011;69665;55.822;37.330;2024-03-25T08:13:19;5.28;;;0.98;;
72941;SDS011;69665;55.822;37.330;2024-03-25T08:15:47;2.25;;;0.50;;
72941;SDS011;69665;55.822;37.330;2024-03-25T08:18:13;2.25;;;0.63;;
72941;SDS011;69665;55.822;37.330;2024-03-25T08:20:39;3.22;;;0.90;;
72941;SDS011;69665;55.822;37.330;2024-03-25T08:23:05;4.05;;;1.48;;
72941;SDS011;69665;55.822;37.330;2024-03-25T08:25:30;3.30;;;1.15;;
72941;SDS011;69665;55.822;37.330;2024-03-25T08:27:57;2.08;;;0.68;;
72941;SDS011;69665;55.822;37.330;2024-03-25T08:30:23;4.28;;;0.82;;
72941;SDS011;69665;55.822;37.330;2024-03-25T08:32:50;2.03;;;0.98;;
72941;SDS011;69665;55.822;37.330;2024-03-25T08:35:16;3.50;;;0.80;;
72941;SDS011;69665;55.822;37.330;2024-03-25T08:37:42;6.97;;;2.65;;
72941;SDS011;69665;55.822;37.330;2024-03-25T08:40:09;3.70;;;0.90;;
72941;SDS011;69665;55.822;37.330;2024-03-25T08:42:35;2.45;;;0.77;;
72941;SDS011;69665;55.822;37.330;2024-03-25T08:45:03;4.75;;;0.93;;
72941;SDS011;69665;55.822;37.330;2024-03-25T08:47:31;2.13;;;0.90;;
72941;SDS011;69665;55.822;37.330;2024-03-25T08:49:56;3.10;;;0.73;;
72941;SDS011;69665;55.822;37.330;2024-03-25T08:52:22;2.33;;;0.70;;
72941;SDS011;69665;55.822;37.330;2024-03-25T08:54:48;4.10;;;0.93;;
72941;SDS011;69665;55.822;37.330;2024-03-25T08:57:14;4.40;;;1.00;;
72941;SDS011;69665;55.822;37.330;2024-03-25T08:59:40;2.20;;;0.80;;
72941;SDS011;69665;55.822;37.330;2024-03-25T09:02:06;3.78;;;1.10;;
72941;SDS011;69665;55.822;37.330;2024-03-25T09:04:33;3.28;;;0.88;;
72941;SDS011;69665;55.822;37.330;2024-03-25T09:07:02;2.78;;;1.05;;
72941;SDS011;69665;55.822;37.330;2024-03-25T09:09:28;4.43;;;1.17;;
72941;SDS011;69665;55.822;37.330;2024-03-25T09:12:12;4.80;;;1.10;;
72941;SDS011;69665;55.822;37.330;2024-03-25T09:14:38;3.13;;;0.70;;
72941;SDS011;69665;55.822;37.330;2024-03-25T09:17:04;4.68;;;0.80;;
72941;SDS011;69665;55.822;37.330;2024-03-25T09:19:30;6.15;;;1.65;;
72941;SDS011;69665;55.822;37.330;2024-03-25T09:21:56;5.13;;;0.98;;
72941;SDS011;69665;55.822;37.330;2024-03-25T09:24:22;2.30;;;0.77;;
72941;SDS011;69665;55.822;37.330;2024-03-25T09:26:49;3.13;;;0.90;;
72941;SDS011;69665;55.822;37.330;2024-03-25T09:29:15;5.55;;;1.10;;
72941;SDS011;69665;55.822;37.330;2024-03-25T09:31:41;2.15;;;0.70;;
72941;SDS011;69665;55.822;37.330;2024-03-25T09:34:07;4.88;;;0.93;;
72941;SDS011;69665;55.822;37.330;2024-03-25T09:36:32;2.80;;;0.90;;
72941;SDS011;69665;55.822;37.330;2024-03-25T09:38:58;4.90;;;1.00;;
72941;SDS011;69665;55.822;37.330;2024-03-25T09:41:23;3.88;;;1.27;;
72941;SDS011;69665;55.822;37.330;2024-03-25T09:43:53;2.83;;;0.88;;
72941;SDS011;69665;55.822;37.330;2024-03-25T09:46:20;3.92;;;1.10;;
72941;SDS011;69665;55.822;37.330;2024-03-25T09:48:48;2.83;;;0.95;;
72941;SDS011;69665;55.822;37.330;2024-03-25T09:51:14;4.43;;;0.95;;
72941;SDS011;69665;55.822;37.330;2024-03-25T09:53:40;5.10;;;1.10;;
72941;SDS011;69665;55.822;37.330;2024-03-25T09:56:06;2.95;;;1.00;;
72941;SDS011;69665;55.822;37.330;2024-03-25T09:58:32;3.97;;;1.17;;
72941;SDS011;69665;55.822;37.330;2024-03-25T10:00:59;4.72;;;0.80;;
72941;SDS011;69665;55.822;37.330;2024-03-25T10:03:25;4.25;;;0.90;;
72941;SDS011;69665;55.822;37.330;2024-03-25T10:05:51;3.60;;;0.90;;
72941;SDS011;69665;55.822;37.330;2024-03-25T10:08:22;3.70;;;1.00;;
72941;SDS011;69665;55.822;37.330;2024-03-25T10:10:52;1.98;;;0.88;;
72941;SDS011;69665;55.822;37.330;2024-03-25T10:13:20;2.25;;;0.63;;
72941;SDS011;69665;55.822;37.330;2024-03-25T10:15:48;3.90;;;0.90;;
72941;SDS011;69665;55.822;37.330;2024-03-25T10:18:14;4.25;;;1.17;;
72941;SDS011;69665;55.822;37.330;2024-03-25T10:20:49;2.83;;;0.90;;
72941;SDS011;69665;55.822;37.330;2024-03-25T10:23:23;4.75;;;1.00;;
72941;SDS011;69665;55.822;37.330;2024-03-25T10:25:53;2.78;;;0.95;;
72941;SDS011;69665;55.822;37.330;2024-03-25T10:28:19;2.40;;;0.70;;
72941;SDS011;69665;55.822;37.330;2024-03-25T10:30:45;3.78;;;1.05;;
72941;SDS011;69665;55.822;37.330;2024-03-25T10:33:12;4.28;;;0.80;;
72941;SDS011;69665;55.822;37.330;2024-03-25T10:35:38;3.42;;;0.88;;
72941;SDS011;69665;55.822;37.330;2024-03-25T10:38:07;3.17;;;1.00;;
72941;SDS011;69665;55.822;37.330;2024-03-25T10:43:03;4.63;;;1.33;;
72941;SDS011;69665;55.822;37.330;2024-03-25T10:45:35;2.63;;;0.93;;
72941;SDS011;69665;55.822;37.330;2024-03-25T10:48:17;3.17;;;0.80;;
72941;SDS011;69665;55.822;37.330;2024-03-25T10:50:45;2.08;;;0.85;;
72941;SDS011;69665;55.822;37.330;2024-03-25T10:53:12;4.43;;;1.10;;
72941;SDS011;69665;55.822;37.330;2024-03-25T10:55:39;4.63;;;0.90;;
72941;SDS011;69665;55.822;37.330;2024-03-25T10:58:07;3.95;;;1.10;;
72941;SDS011;69665;55.822;37.330;2024-03-25T11:00:36;2.53;;;0.80;;
72941;SDS011;69665;55.822;37.330;2024-03-25T11:03:03;6.00;;;1.05;;
72941;SDS011;69665;55.822;37.330;2024-03-25T11:05:29;2.75;;;0.90;;
72941;SDS011;69665;55.822;37.330;2024-03-25T11:07:55;2.35;;;0.85;;
72941;SDS011;69665;55.822;37.330;2024-03-25T11:10:28;3.47;;;1.10;;
72941;SDS011;69665;55.822;37.330;2024-03-25T11:12:55;4.78;;;0.82;;
72941;SDS011;69665;55.822;37.330;2024-03-25T11:15:20;3.30;;;0.80;;
72941;SDS011;69665;55.822;37.330;2024-03-25T11:17:49;5.53;;;1.30;;
72941;SDS011;69665;55.822;37.330;2024-03-25T11:20:16;3.15;;;0.90;;
72941;SDS011;69665;55.822;37.330;2024-03-25T11:22:49;4.10;;;1.02;;
72941;SDS011;69665;55.822;37.330;2024-03-25T11:25:16;4.78;;;0.85;;
72941;SDS011;69665;55.822;37.330;2024-03-25T11:27:44;3.58;;;0.90;;
72941;SDS011;69665;55.822;37.330;2024-03-25T11:30:11;3.88;;;1.30;;
72941;SDS011;69665;55.822;37.330;2024-03-25T11:32:55;2.97;;;0.90;;
72941;SDS011;69665;55.822;37.330;2024-03-25T11:35:21;4.68;;;1.10;;
72941;SDS011;69665;55.822;37.330;2024-03-25T11:37:49;4.55;;;1.10;;
72941;SDS011;69665;55.822;37.330;2024-03-25T11:40:16;3.50;;;1.17;;
72941;SDS011;69665;55.822;37.330;2024-03-25T11:42:44;4.53;;;0.90;;
72941;SDS011;69665;55.822;37.330;2024-03-25T11:45:15;4.88;;;0.90;;
72941;SDS011;69665;55.822;37.330;2024-03-25T11:47:44;2.08;;;0.90;;
72941;SDS011;69665;55.822;37.330;2024-03-25T11:50:11;3.35;;;1.10;;
72941;SDS011;69665;55.822;37.330;2024-03-25T11:52:44;3.72;;;1.08;;
72941;SDS011;69665;55.822;37.330;2024-03-25T11:55:10;4.07;;;1.10;;
72941;SDS011;69665;55.822;37.330;2024-03-25T11:57:38;3.85;;;0.82;;
72941;SDS011;69665;55.822;37.330;2024-03-25T12:00:04;4.43;;;0.93;;
72941;SDS011;69665;55.822;37.330;2024-03-25T12:02:44;5.03;;;1.02;;
72941;SDS011;69665;55.822;37.330;2024-03-25T12:05:13;2.22;;;0.80;;
72941;SDS011;69665;55.822;37.330;2024-03-25T12:07:39;4.13;;;0.85;;
72941;SDS011;69665;55.822;37.330;2024-03-25T12:10:05;3.38;;;0.88;;
72941;SDS011;69665;55.822;37.330;2024-03-25T12:12:49;3.30;;;0.85;;
72941;SDS011;69665;55.822;37.330;2024-03-25T12:15:20;4.35;;;1.00;;
72941;SDS011;69665;55.822;37.330;2024-03-25T12:17:46;3.72;;;1.00;;
72941;SDS011;69665;55.822;37.330;2024-03-25T12:20:13;4.97;;;1.10;;
72941;SDS011;69665;55.822;37.330;2024-03-25T12:22:43;2.55;;;0.93;;
72941;SDS011;69665;55.822;37.330;2024-03-25T12:25:10;4.10;;;0.90;;
72941;SDS011;69665;55.822;37.330;2024-03-25T12:27:36;2.42;;;0.93;;
72941;SDS011;69665;55.822;37.330;2024-03-25T12:30:07;4.20;;;0.88;;
72941;SDS011;69665;55.822;37.330;2024-03-25T12:32:40;3.58;;;0.90;;
72941;SDS011;69665;55.822;37.330;2024-03-25T12:37:37;5.68;;;1.08;;
72941;SDS011;69665;55.822;37.330;2024-03-25T12:40:05;5.30;;;0.98;;
72941;SDS011;69665;55.822;37.330;2024-03-25T12:42:35;3.85;;;0.88;;
72941;SDS011;69665;55.822;37.330;2024-03-25T12:45:01;3.83;;;0.85;;
72941;SDS011;69665;55.822;37.330;2024-03-25T12:47:30;5.70;;;0.98;;
72941;SDS011;69665;55.822;37.330;2024-03-25T12:49:57;3.78;;;1.02;;
72941;SDS011;69665;55.822;37.330;2024-03-25T12:52:23;2.65;;;0.75;;
72941;SDS011;69665;55.822;37.330;2024-03-25T12:54:49;3.00;;;1.10;;
72941;SDS011;69665;55.822;37.330;2024-03-25T12:57:14;3.20;;;0.98;;
72941;SDS011;69665;55.822;37.330;2024-03-25T12:59:40;4.60;;;1.38;;
72941;SDS011;69665;55.822;37.330;2024-03-25T13:02:10;2.13;;;0.80;;
72941;SDS011;69665;55.822;37.330;2024-03-25T13:04:37;4.07;;;1.02;;
72941;SDS011;69665;55.822;37.330;2024-03-25T13:07:04;6.65;;;1.00;;
72941;SDS011;69665;55.822;37.330;2024-03-25T13:09:31;3.97;;;1.08;;
72941;SDS011;69665;55.822;37.330;2024-03-25T13:11:57;4.88;;;1.38;;
72941;SDS011;69665;55.822;37.330;2024-03-25T13:14:23;3.67;;;0.95;;
72941;SDS011;69665;55.822;37.330;2024-03-25T13:16:49;3.80;;;0.93;;
72941;SDS011;69665;55.822;37.330;2024-03-25T13:19:14;4.05;;;1.48;;
72941;SDS011;69665;55.822;37.330;2024-03-25T13:21:40;2.38;;;0.80;;
72941;SDS011;69665;55.822;37.330;2024-03-25T13:24:07;5.55;;;1.40;;
72941;SDS011;69665;55.822;37.330;2024-03-25T13:26:33;4.93;;;1.10;;
72941;SDS011;69665;55.822;37.330;2024-03-25T13:28:58;4.22;;;1.20;;
72941;SDS011;69665;55.822;37.330;2024-03-25T13:31:25;6.13;;;1.27;;
72941;SDS011;69665;55.822;37.330;2024-03-25T13:33:51;3.47;;;1.27;;
72941;SDS011;69665;55.822;37.330;2024-03-25T13:36:17;3.17;;;1.30;;
72941;SDS011;69665;55.822;37.330;2024-03-25T13:38:43;4.18;;;1.48;;
72941;SDS011;69665;55.822;37.330;2024-03-25T13:41:09;5.97;;;1.65;;
72941;SDS011;69665;55.822;37.330;2024-03-25T13:43:35;6.75;;;1.90;;
72941;SDS011;69665;55.822;37.330;2024-03-25T13:46:04;4.70;;;1.30;;
72941;SDS011;69665;55.822;37.330;2024-03-25T13:48:29;4.40;;;1.40;;
72941;SDS011;69665;55.822;37.330;2024-03-25T13:50:55;5.05;;;1.15;;
72941;SDS011;69665;55.822;37.330;2024-03-25T13:53:20;6.07;;;1.33;;
72941;SDS011;69665;55.822;37.330;2024-03-25T13:55:46;4.18;;;1.20;;
72941;SDS011;69665;55.822;37.330;2024-03-25T13:58:12;4.13;;;1.10;;
72941;SDS011;69665;55.822;37.330;2024-03-25T14:00:38;6.00;;;1.45;;
72941;SDS011;69665;55.822;37.330;2024-03-25T14:03:04;7.43;;;1.27;;
72941;SDS011;69665;55.822;37.330;2024-03-25T14:05:29;5.15;;;1.25;;
72941;SDS011;69665;55.822;37.330;2024-03-25T14:07:55;4.85;;;1.10;;
72941;SDS011;69665;55.822;37.330;2024-03-25T14:10:21;3.70;;;1.30;;
72941;SDS011;69665;55.822;37.330;2024-03-25T14:12:47;4.18;;;1.27;;
72941;SDS011;69665;55.822;37.330;2024-03-25T14:15:13;4.85;;;0.98;;
72941;SDS011;69665;55.822;37.330;2024-03-25T14:17:39;2.88;;;1.08;;
72941;SDS011;69665;55.822;37.330;2024-03-25T14:20:05;3.72;;;1.33;;
72941;SDS011;69665;55.822;37.330;2024-03-25T14:22:32;7.18;;;1.65;;
72941;SDS011;69665;55.822;37.330;2024-03-25T14:24:58;6.15;;;2.00;;
72941;SDS011;69665;55.822;37.330;2024-03-25T14:27:24;6.82;;;1.52;;
72941;SDS011;69665;55.822;37.330;2024-03-25T14:29:50;7.03;;;1.65;;
72941;SDS011;69665;55.822;37.330;2024-03-25T14:32:20;4.88;;;1.02;;
72941;SDS011;69665;55.822;37.330;2024-03-25T14:34:47;6.07;;;1.50;;
72941;SDS011;69665;55.822;37.330;2024-03-25T14:37:13;3.22;;;0.98;;